sensor_id;sensor_type;location;lat;lon;timestamp;noise_LAeq;noise_LA_min;noise_LA_max;noise_LA01;noise_LA95
66888;Laerm;67239;51.680;5.976;2024-01-15T00:01:17;39.38;35.20;50.76;;
66888;Laerm;67239;51.680;5.976;2024-01-15T00:03:44;56.86;35.10;73.73;;
66888;Laerm;67239;51.680;5.976;2024-01-15T00:06:14;38.25;35.27;42.66;;
66888;Laerm;67239;51.680;5.976;2024-01-15T00:08:41;38.98;36.04;47.75;;
66888;Laerm;67239;51.680;5.976;2024-01-15T00:11:08;38.74;34.71;48.04;;
66888;Laerm;67239;51.680;5.976;2024-01-15T00:13:35;39.80;36.33;50.14;;
66888;Laerm;67239;51.680;5.976;2024-01-15T00:16:04;39.52;36.03;51.40;;
66888;Laerm;67239;51.680;5.976;2024-01-15T00:18:31;42.00;35.59;58.63;;
66888;Laerm;67239;51.680;5.976;2024-01-15T00:20:58;39.38;35.54;49.83;;
66888;Laerm;67239;51.680;5.976;2024-01-15T00:23:25;58.29;35.77;78.21;;
66888;Laerm;67239;51.680;5.976;2024-01-15T00:25:52;39.70;34.53;55.91;;
66888;Laerm;67239;51.680;5.976;2024-01-15T00:28:20;38.85;34.66;51.13;;
66888;Laerm;67239;51.680;5.976;2024-01-15T00:30:47;40.97;35.42;60.79;;
66888;Laerm;67239;51.680;5.976;2024-01-15T00:33:14;39.29;35.75;51.87;;
66888;Laerm;67239;51.680;5.976;2024-01-15T00:35:42;54.98;36.10;72.84;;
66888;Laerm;67239;51.680;5.976;2024-01-15T00:38:09;44.71;36.31;65.02;;
66888;Laerm;67239;51.680;5.976;2024-01-15T00:40:36;39.74;36.59;49.65;;
66888;Laerm;67239;51.680;5.976;2024-01-15T00:43:03;39.76;35.89;50.74;;
66888;Laerm;67239;51.680;5.976;2024-01-15T00:45:31;39.31;35.72;47.58;;
66888;Laerm;67239;51.680;5.976;2024-01-15T00:47:58;39.01;35.66;45.31;;
66888;Laerm;67239;51.680;5.976;2024-01-15T00:50:29;38.31;35.10;47.77;;
66888;Laerm;67239;51.680;5.976;2024-01-15T00:52:56;39.29;35.34;53.54;;
66888;Laerm;67239;51.680;5.976;2024-01-15T00:55:23;39.68;35.66;53.03;;
66888;Laerm;67239;51.680;5.976;2024-01-15T00:57:50;40.02;35.99;55.88;;
66888;Laerm;67239;51.680;5.976;2024-01-15T01:00:17;38.90;35.25;48.53;;
66888;Laerm;67239;51.680;5.976;2024-01-15T01:02:45;39.04;35.57;48.68;;
66888;Laerm;67239;51.680;5.976;2024-01-15T01:05:12;38.71;35.45;46.63;;
66888;Laerm;67239;51.680;5.976;2024-01-15T01:07:39;59.16;35.85;78.40;;
66888;Laerm;67239;51.680;5.976;2024-01-15T01:10:07;57.12;35.50;75.48;;
66888;Laerm;67239;51.680;5.976;2024-01-15T01:12:34;39.65;35.80;52.11;;
66888;Laerm;67239;51.680;5.976;2024-01-15T01:15:02;38.81;34.88;55.22;;
66888;Laerm;67239;51.680;5.976;2024-01-15T01:17:29;60.17;35.46;79.30;;
66888;Laerm;67239;51.680;5.976;2024-01-15T01:19:57;40.82;36.17;54.90;;
66888;Laerm;67239;51.680;5.976;2024-01-15T01:22:25;39.92;35.25;56.92;;
66888;Laerm;67239;51.680;5.976;2024-01-15T01:24:52;40.04;36.17;46.48;;
66888;Laerm;67239;51.680;5.976;2024-01-15T01:27:19;39.18;36.03;45.78;;
66888;Laerm;67239;51.680;5.976;2024-01-15T01:29:46;47.79;34.99;68.57;;
66888;Laerm;67239;51.680;5.976;2024-01-15T01:32:13;57.64;34.49;74.92;;
66888;Laerm;67239;51.680;5.976;2024-01-15T01:34:41;39.14;35.41;53.31;;
66888;Laerm;67239;51.680;5.976;2024-01-15T01:37:12;40.55;35.60;59.50;;
66888;Laerm;67239;51.680;5.976;2024-01-15T01:39:44;43.45;35.80;64.78;;
66888;Laerm;67239;51.680;5.976;2024-01-15T01:42:12;39.54;35.00;50.52;;
66888;Laerm;67239;51.680;5.976;2024-01-15T01:44:39;38.74;35.19;50.21;;
66888;Laerm;67239;51.680;5.976;2024-01-15T01:47:07;39.60;35.54;54.48;;
66888;Laerm;67239;51.680;5.976;2024-01-15T01:49:37;38.88;35.61;51.32;;
66888;Laerm;67239;51.680;5.976;2024-01-15T01:52:06;38.93;34.58;46.25;;
66888;Laerm;67239;51.680;5.976;2024-01-15T01:54:35;39.03;35.44;52.41;;
66888;Laerm;67239;51.680;5.976;2024-01-15T01:57:05;39.07;35.67;45.95;;
66888;Laerm;67239;51.680;5.976;2024-01-15T01:59:35;39.12;35.39;60.81;;
66888;Laerm;67239;51.680;5.976;2024-01-15T02:02:03;38.26;35.09;51.03;;
66888;Laerm;67239;51.680;5.976;2024-01-15T02:04:31;38.79;35.43;49.80;;
66888;Laerm;67239;51.680;5.976;2024-01-15T02:07:00;38.65;35.12;49.04;;
66888;Laerm;67239;51.680;5.976;2024-01-15T02:09:27;39.86;34.90;51.83;;
66888;Laerm;67239;51.680;5.976;2024-01-15T02:11:55;39.62;36.80;47.11;;
66888;Laerm;67239;51.680;5.976;2024-01-15T02:14:22;41.46;36.09;56.86;;
66888;Laerm;67239;51.680;5.976;2024-01-15T02:16:49;63.58;36.83;80.98;;
66888;Laerm;67239;51.680;5.976;2024-01-15T02:19:17;39.95;36.48;48.81;;
66888;Laerm;67239;51.680;5.976;2024-01-15T02:21:45;39.15;34.92;45.84;;
66888;Laerm;67239;51.680;5.976;2024-01-15T02:24:13;40.06;35.38;49.90;;
66888;Laerm;67239;51.680;5.976;2024-01-15T02:26:40;39.06;35.61;47.99;;
66888;Laerm;67239;51.680;5.976;2024-01-15T02:29:08;40.29;36.18;52.68;;
66888;Laerm;67239;51.680;5.976;2024-01-15T02:31:39;38.91;34.63;45.66;;
66888;Laerm;67239;51.680;5.976;2024-01-15T02:34:06;39.15;35.68;44.56;;
66888;Laerm;67239;51.680;5.976;2024-01-15T02:36:33;38.95;35.61;48.11;;
66888;Laerm;67239;51.680;5.976;2024-01-15T02:39:01;39.42;35.92;47.38;;
66888;Laerm;67239;51.680;5.976;2024-01-15T02:41:28;40.35;37.10;49.72;;
66888;Laerm;67239;51.680;5.976;2024-01-15T02:43:55;39.26;35.52;50.16;;
66888;Laerm;67239;51.680;5.976;2024-01-15T02:46:22;38.49;35.52;44.66;;
66888;Laerm;67239;51.680;5.976;2024-01-15T02:48:49;39.29;34.76;56.14;;
66888;Laerm;67239;51.680;5.976;2024-01-15T02:51:16;57.66;35.64;74.71;;
66888;Laerm;67239;51.680;5.976;2024-01-15T02:53:43;59.27;35.93;78.83;;
66888;Laerm;67239;51.680;5.976;2024-01-15T02:56:10;39.71;35.09;46.30;;
66888;Laerm;67239;51.680;5.976;2024-01-15T02:58:37;39.76;35.96;45.40;;
66888;Laerm;67239;51.680;5.976;2024-01-15T03:01:05;63.84;36.94;79.51;;
66888;Laerm;67239;51.680;5.976;2024-01-15T03:03:32;40.98;35.91;58.63;;
66888;Laerm;67239;51.680;5.976;2024-01-15T03:06:02;57.49;36.67;76.26;;
66888;Laerm;67239;51.680;5.976;2024-01-15T03:08:29;39.49;36.02;46.90;;
66888;Laerm;67239;51.680;5.976;2024-01-15T03:10:56;58.38;35.91;77.62;;
66888;Laerm;67239;51.680;5.976;2024-01-15T03:13:23;58.70;36.49;77.58;;
66888;Laerm;67239;51.680;5.976;2024-01-15T03:15:50;62.29;36.34;79.74;;
66888;Laerm;67239;51.680;5.976;2024-01-15T03:18:17;39.93;36.17;50.39;;
66888;Laerm;67239;51.680;5.976;2024-01-15T03:20:45;40.33;36.58;49.48;;
66888;Laerm;67239;51.680;5.976;2024-01-15T03:23:12;59.47;37.44;77.25;;
66888;Laerm;67239;51.680;5.976;2024-01-15T03:25:39;56.23;37.14;71.53;;
66888;Laerm;67239;51.680;5.976;2024-01-15T03:28:06;40.32;36.91;47.72;;
66888;Laerm;67239;51.680;5.976;2024-01-15T03:30:33;41.73;38.06;52.77;;
66888;Laerm;67239;51.680;5.976;2024-01-15T03:33:00;40.71;37.52;47.99;;
66888;Laerm;67239;51.680;5.976;2024-01-15T03:35:27;44.12;37.60;56.72;;
66888;Laerm;67239;51.680;5.976;2024-01-15T03:37:56;62.68;37.77;81.08;;
66888;Laerm;67239;51.680;5.976;2024-01-15T03:40:23;61.64;37.35;81.66;;
66888;Laerm;67239;51.680;5.976;2024-01-15T03:42:51;41.91;38.29;51.72;;
66888;Laerm;67239;51.680;5.976;2024-01-15T03:45:18;65.78;38.39;80.28;;
66888;Laerm;67239;51.680;5.976;2024-01-15T03:47:45;65.84;38.54;85.14;;
66888;Laerm;67239;51.680;5.976;2024-01-15T03:50:12;42.74;37.48;55.12;;
66888;Laerm;67239;51.680;5.976;2024-01-15T03:52:39;40.98;37.33;50.90;;
66888;Laerm;67239;51.680;5.976;2024-01-15T03:55:07;53.28;38.74;69.57;;
66888;Laerm;67239;51.680;5.976;2024-01-15T03:57:34;43.61;37.16;57.70;;
66888;Laerm;67239;51.680;5.976;2024-01-15T04:00:01;62.13;38.34;78.25;;
66888;Laerm;67239;51.680;5.976;2024-01-15T04:02:30;41.24;38.12;46.05;;
66888;Laerm;67239;51.680;5.976;2024-01-15T04:04:58;41.90;37.97;51.96;;
66888;Laerm;67239;51.680;5.976;2024-01-15T04:07:25;42.07;38.79;46.49;;
66888;Laerm;67239;51.680;5.976;2024-01-15T04:09:52;42.25;38.88;48.17;;
66888;Laerm;67239;51.680;5.976;2024-01-15T04:12:19;63.34;40.20;82.13;;
66888;Laerm;67239;51.680;5.976;2024-01-15T04:14:46;62.30;40.55;80.73;;
66888;Laerm;67239;51.680;5.976;2024-01-15T04:17:13;61.58;40.30;75.77;;
66888;Laerm;67239;51.680;5.976;2024-01-15T04:19:43;65.31;40.22;79.54;;
66888;Laerm;67239;51.680;5.976;2024-01-15T04:22:11;59.83;40.06;74.51;;
66888;Laerm;67239;51.680;5.976;2024-01-15T04:24:38;47.14;38.35;62.79;;
66888;Laerm;67239;51.680;5.976;2024-01-15T04:27:06;67.95;42.80;82.08;;
66888;Laerm;67239;51.680;5.976;2024-01-15T04:29:34;64.39;41.32;79.08;;
66888;Laerm;67239;51.680;5.976;2024-01-15T04:32:04;64.45;41.24;80.31;;
66888;Laerm;67239;51.680;5.976;2024-01-15T04:34:31;58.73;41.54;77.62;;
66888;Laerm;67239;51.680;5.976;2024-01-15T04:36:58;59.61;41.60;74.76;;
66888;Laerm;67239;51.680;5.976;2024-01-15T04:39:25;65.30;41.21;80.43;;
66888;Laerm;67239;51.680;5.976;2024-01-15T04:41:52;64.13;39.63;77.46;;
66888;Laerm;67239;51.680;5.976;2024-01-15T04:44:20;64.37;40.97;79.57;;
66888;Laerm;67239;51.680;5.976;2024-01-15T04:46:47;63.65;40.43;78.60;;
66888;Laerm;67239;51.680;5.976;2024-01-15T04:49:14;68.25;43.92;83.20;;
66888;Laerm;67239;51.680;5.976;2024-01-15T04:51:41;62.65;43.67;79.02;;
66888;Laerm;67239;51.680;5.976;2024-01-15T04:54:08;62.72;41.92;76.29;;
66888;Laerm;67239;51.680;5.976;2024-01-15T04:56:35;59.77;40.46;76.13;;
66888;Laerm;67239;51.680;5.976;2024-01-15T04:59:02;63.60;40.95;76.66;;
66888;Laerm;67239;51.680;5.976;2024-01-15T05:01:32;64.03;42.43;78.54;;
66888;Laerm;67239;51.680;5.976;2024-01-15T05:03:59;60.68;40.67;77.55;;
66888;Laerm;67239;51.680;5.976;2024-01-15T05:06:26;66.01;44.57;79.84;;
66888;Laerm;67239;51.680;5.976;2024-01-15T05:08:54;69.15;44.18;81.67;;
66888;Laerm;67239;51.680;5.976;2024-01-15T05:11:21;67.81;43.22;82.28;;
66888;Laerm;67239;51.680;5.976;2024-01-15T05:13:48;65.35;42.07;78.47;;
66888;Laerm;67239;51.680;5.976;2024-01-15T05:16:15;69.28;46.88;82.98;;
66888;Laerm;67239;51.680;5.976;2024-01-15T05:18:42;66.86;45.16;80.64;;
66888;Laerm;67239;51.680;5.976;2024-01-15T05:21:10;67.92;44.89;82.70;;
66888;Laerm;67239;51.680;5.976;2024-01-15T05:23:37;62.04;44.27;76.57;;
66888;Laerm;67239;51.680;5.976;2024-01-15T05:26:07;67.54;43.46;83.76;;
66888;Laerm;67239;51.680;5.976;2024-01-15T05:28:36;66.98;44.24;82.96;;
66888;Laerm;67239;51.680;5.976;2024-01-15T05:31:05;64.66;43.15;78.12;;
66888;Laerm;67239;51.680;5.976;2024-01-15T05:33:33;61.82;44.20;75.29;;
66888;Laerm;67239;51.680;5.976;2024-01-15T05:36:00;70.52;46.02;84.44;;
66888;Laerm;67239;51.680;5.976;2024-01-15T05:38:27;65.53;42.88;78.36;;
66888;Laerm;67239;51.680;5.976;2024-01-15T05:40:54;69.64;45.57;83.55;;
66888;Laerm;67239;51.680;5.976;2024-01-15T05:43:21;69.56;50.21;87.84;;
66888;Laerm;67239;51.680;5.976;2024-01-15T05:45:48;67.92;48.30;80.13;;
66888;Laerm;67239;51.680;5.976;2024-01-15T05:48:16;67.41;46.67;80.84;;
66888;Laerm;67239;51.680;5.976;2024-01-15T05:50:43;71.26;45.21;84.73;;
66888;Laerm;67239;51.680;5.976;2024-01-15T05:53:10;68.25;45.05;83.12;;
66888;Laerm;67239;51.680;5.976;2024-01-15T05:55:37;70.61;47.31;84.21;;
66888;Laerm;67239;51.680;5.976;2024-01-15T05:58:05;65.94;46.55;78.37;;
66888;Laerm;67239;51.680;5.976;2024-01-15T06:00:32;69.21;46.58;81.24;;
66888;Laerm;67239;51.680;5.976;2024-01-15T06:03:03;68.92;44.96;80.11;;
66888;Laerm;67239;51.680;5.976;2024-01-15T06:05:30;64.79;46.74;76.19;;
66888;Laerm;67239;51.680;5.976;2024-01-15T06:07:57;64.65;44.42;82.15;;
66888;Laerm;67239;51.680;5.976;2024-01-15T06:10:24;68.11;47.02;79.65;;
66888;Laerm;67239;51.680;5.976;2024-01-15T06:12:54;64.77;45.95;77.72;;
66888;Laerm;67239;51.680;5.976;2024-01-15T06:15:21;67.00;45.48;79.73;;
66888;Laerm;67239;51.680;5.976;2024-01-15T06:17:51;68.80;46.94;82.85;;
66888;Laerm;67239;51.680;5.976;2024-01-15T06:20:19;69.81;51.02;83.18;;
66888;Laerm;67239;51.680;5.976;2024-01-15T06:22:46;70.21;48.18;81.56;;
66888;Laerm;67239;51.680;5.976;2024-01-15T06:25:13;69.41;46.79;81.47;;
66888;Laerm;67239;51.680;5.976;2024-01-15T06:27:40;63.49;44.55;75.71;;
66888;Laerm;67239;51.680;5.976;2024-01-15T06:30:08;72.02;47.78;83.54;;
66888;Laerm;67239;51.680;5.976;2024-01-15T06:32:35;70.92;45.38;81.76;;
66888;Laerm;67239;51.680;5.976;2024-01-15T06:35:03;70.82;47.75;84.18;;
66888;Laerm;67239;51.680;5.976;2024-01-15T06:37:31;68.70;46.34;83.11;;
66888;Laerm;67239;51.680;5.976;2024-01-15T06:39:59;69.39;46.58;81.25;;
66888;Laerm;67239;51.680;5.976;2024-01-15T06:42:26;68.45;46.22;81.01;;
66888;Laerm;67239;51.680;5.976;2024-01-15T06:44:53;71.91;49.43;83.58;;
66888;Laerm;67239;51.680;5.976;2024-01-15T06:47:20;68.25;48.93;79.59;;
66888;Laerm;67239;51.680;5.976;2024-01-15T06:49:48;71.74;48.31;81.66;;
66888;Laerm;67239;51.680;5.976;2024-01-15T06:52:17;68.61;45.29;81.03;;
66888;Laerm;67239;51.680;5.976;2024-01-15T06:54:44;69.91;47.22;82.53;;
66888;Laerm;67239;51.680;5.976;2024-01-15T06:57:12;68.96;45.93;80.77;;
66888;Laerm;67239;51.680;5.976;2024-01-15T06:59:39;70.84;45.90;82.32;;
66888;Laerm;67239;51.680;5.976;2024-01-15T07:02:06;69.48;48.12;81.70;;
66888;Laerm;67239;51.680;5.976;2024-01-15T07:04:33;67.25;46.42;80.39;;
66888;Laerm;67239;51.680;5.976;2024-01-15T07:07:00;69.31;46.82;80.08;;
66888;Laerm;67239;51.680;5.976;2024-01-15T07:09:27;68.95;47.13;80.19;;
66888;Laerm;67239;51.680;5.976;2024-01-15T07:11:54;68.82;44.87;81.78;;
66888;Laerm;67239;51.680;5.976;2024-01-15T07:14:24;68.33;47.04;81.31;;
66888;Laerm;67239;51.680;5.976;2024-01-15T07:16:51;69.63;46.51;82.85;;
66888;Laerm;67239;51.680;5.976;2024-01-15T07:19:18;67.32;45.81;79.29;;
66888;Laerm;67239;51.680;5.976;2024-01-15T07:21:45;71.72;52.59;82.67;;
66888;Laerm;67239;51.680;5.976;2024-01-15T07:24:12;69.87;50.08;81.95;;
66888;Laerm;67239;51.680;5.976;2024-01-15T07:26:40;69.19;48.84;82.00;;
66888;Laerm;67239;51.680;5.976;2024-01-15T07:29:07;67.58;45.25;78.25;;
66888;Laerm;67239;51.680;5.976;2024-01-15T07:31:35;70.28;46.35;82.56;;
66888;Laerm;67239;51.680;5.976;2024-01-15T07:34:02;71.02;46.92;83.63;;
66888;Laerm;67239;51.680;5.976;2024-01-15T07:36:29;69.05;45.29;80.96;;
66888;Laerm;67239;51.680;5.976;2024-01-15T07:38:57;70.08;45.55;85.79;;
66888;Laerm;67239;51.680;5.976;2024-01-15T07:41:24;69.80;45.24;82.04;;
66888;Laerm;67239;51.680;5.976;2024-01-15T07:43:51;71.64;48.70;83.44;;
66888;Laerm;67239;51.680;5.976;2024-01-15T07:46:18;71.43;47.71;86.13;;
66888;Laerm;67239;51.680;5.976;2024-01-15T07:48:45;68.87;45.86;81.24;;
66888;Laerm;67239;51.680;5.976;2024-01-15T07:51:12;69.39;47.02;81.73;;
66888;Laerm;67239;51.680;5.976;2024-01-15T07:53:40;67.68;48.92;80.79;;
66888;Laerm;67239;51.680;5.976;2024-01-15T07:56:07;67.96;47.80;84.79;;
66888;Laerm;67239;51.680;5.976;2024-01-15T07:58:34;66.09;45.56;80.81;;
66888;Laerm;67239;51.680;5.976;2024-01-15T08:01:01;70.71;49.72;82.67;;
66888;Laerm;67239;51.680;5.976;2024-01-15T08:03:29;64.12;43.80;77.35;;
66888;Laerm;67239;51.680;5.976;2024-01-15T08:05:56;67.74;44.28;83.63;;
66888;Laerm;67239;51.680;5.976;2024-01-15T08:08:25;73.25;48.92;85.32;;
66888;Laerm;67239;51.680;5.976;2024-01-15T08:10:55;69.14;44.78;86.20;;
66888;Laerm;67239;51.680;5.976;2024-01-15T08:13:23;72.18;45.56;83.07;;
66888;Laerm;67239;51.680;5.976;2024-01-15T08:15:53;67.39;47.82;79.30;;
66888;Laerm;67239;51.680;5.976;2024-01-15T08:18:20;69.70;45.17;83.65;;
66888;Laerm;67239;51.680;5.976;2024-01-15T08:20:48;68.75;45.38;85.33;;
66888;Laerm;67239;51.680;5.976;2024-01-15T08:23:18;71.69;48.70;82.67;;
66888;Laerm;67239;51.680;5.976;2024-01-15T08:25:47;68.82;45.04;81.94;;
66888;Laerm;67239;51.680;5.976;2024-01-15T08:28:14;68.43;45.42;81.98;;
66888;Laerm;67239;51.680;5.976;2024-01-15T08:30:44;67.36;42.62;81.12;;
66888;Laerm;67239;51.680;5.976;2024-01-15T08:33:16;69.27;45.87;83.94;;
66888;Laerm;67239;51.680;5.976;2024-01-15T08:35:48;67.73;46.82;78.71;;
66888;Laerm;67239;51.680;5.976;2024-01-15T08:38:15;71.16;44.57;84.20;;
66888;Laerm;67239;51.680;5.976;2024-01-15T08:40:43;70.00;43.59;81.06;;
66888;Laerm;67239;51.680;5.976;2024-01-15T08:43:14;68.03;43.51;80.35;;
66888;Laerm;67239;51.680;5.976;2024-01-15T08:45:41;69.43;42.72;85.17;;
66888;Laerm;67239;51.680;5.976;2024-01-15T08:48:12;64.33;44.09;75.20;;
66888;Laerm;67239;51.680;5.976;2024-01-15T08:50:39;70.27;47.02;83.43;;
66888;Laerm;67239;51.680;5.976;2024-01-15T08:53:06;67.23;44.33;81.69;;
66888;Laerm;67239;51.680;5.976;2024-01-15T08:55:33;71.42;45.75;85.38;;
66888;Laerm;67239;51.680;5.976;2024-01-15T08:58:01;70.78;49.34;81.56;;
66888;Laerm;67239;51.680;5.976;2024-01-15T09:00:30;69.91;44.19;85.13;;
66888;Laerm;67239;51.680;5.976;2024-01-15T09:03:01;68.84;47.86;83.68;;
66888;Laerm;67239;51.680;5.976;2024-01-15T09:05:29;71.21;49.25;84.34;;
66888;Laerm;67239;51.680;5.976;2024-01-15T09:07:56;67.81;43.66;81.36;;
66888;Laerm;67239;51.680;5.976;2024-01-15T09:10:23;73.62;48.13;85.75;;
66888;Laerm;67239;51.680;5.976;2024-01-15T09:12:51;66.13;45.52;80.17;;
66888;Laerm;67239;51.680;5.976;2024-01-15T09:15:21;72.17;48.89;84.15;;
66888;Laerm;67239;51.680;5.976;2024-01-15T09:17:48;71.82;47.22;86.16;;
66888;Laerm;67239;51.680;5.976;2024-01-15T09:20:16;68.69;46.17;83.35;;
66888;Laerm;67239;51.680;5.976;2024-01-15T09:22:43;73.37;55.09;86.15;;
66888;Laerm;67239;51.680;5.976;2024-01-15T09:25:10;68.44;47.53;84.83;;
66888;Laerm;67239;51.680;5.976;2024-01-15T09:27:37;68.96;47.39;83.05;;
66888;Laerm;67239;51.680;5.976;2024-01-15T09:30:05;71.26;47.19;83.37;;
66888;Laerm;67239;51.680;5.976;2024-01-15T09:32:40;69.51;47.61;82.68;;
66888;Laerm;67239;51.680;5.976;2024-01-15T09:35:08;65.54;45.89;78.77;;
66888;Laerm;67239;51.680;5.976;2024-01-15T09:37:39;68.96;48.32;84.21;;
66888;Laerm;67239;51.680;5.976;2024-01-15T09:40:14;68.32;46.76;82.82;;
66888;Laerm;67239;51.680;5.976;2024-01-15T09:42:43;66.39;46.83;79.98;;
66888;Laerm;67239;51.680;5.976;2024-01-15T09:45:14;67.99;49.02;80.81;;
66888;Laerm;67239;51.680;5.976;2024-01-15T09:47:47;71.56;45.78;85.54;;
66888;Laerm;67239;51.680;5.976;2024-01-15T09:50:16;70.20;46.65;82.97;;
66888;Laerm;67239;51.680;5.976;2024-01-15T09:52:45;70.68;49.63;85.81;;
66888;Laerm;67239;51.680;5.976;2024-01-15T09:55:15;69.04;46.46;82.55;;
66888;Laerm;67239;51.680;5.976;2024-01-15T09:57:44;69.16;45.73;81.59;;
66888;Laerm;67239;51.680;5.976;2024-01-15T10:00:21;66.96;45.24;83.71;;
66888;Laerm;67239;51.680;5.976;2024-01-15T10:02:50;66.88;48.68;81.80;;
66888;Laerm;67239;51.680;5.976;2024-01-15T10:05:17;71.02;48.14;82.68;;
66888;Laerm;67239;51.680;5.976;2024-01-15T10:07:47;70.85;45.53;84.36;;
66888;Laerm;67239;51.680;5.976;2024-01-15T10:10:22;69.05;46.21;83.08;;
66888;Laerm;67239;51.680;5.976;2024-01-15T10:12:50;69.24;45.91;81.46;;
66888;Laerm;67239;51.680;5.976;2024-01-15T10:15:23;68.96;45.69;83.20;;
66888;Laerm;67239;51.680;5.976;2024-01-15T10:17:52;69.23;45.96;80.34;;
66888;Laerm;67239;51.680;5.976;2024-01-15T10:20:20;69.82;47.24;83.10;;
66888;Laerm;67239;51.680;5.976;2024-01-15T10:22:52;68.50;45.61;83.59;;
66888;Laerm;67239;51.680;5.976;2024-01-15T10:25:19;72.02;47.05;85.48;;
66888;Laerm;67239;51.680;5.976;2024-01-15T10:28:03;68.19;44.73;81.88;;
66888;Laerm;67239;51.680;5.976;2024-01-15T10:30:32;70.17;45.60;81.43;;
66888;Laerm;67239;51.680;5.976;2024-01-15T10:33:02;71.89;46.89;84.33;;
66888;Laerm;67239;51.680;5.976;2024-01-15T10:35:34;68.89;46.13;85.10;;
66888;Laerm;67239;51.680;5.976;2024-01-15T10:38:08;63.65;45.54;78.01;;
66888;Laerm;67239;51.680;5.976;2024-01-15T10:40:35;69.77;45.60;85.43;;
66888;Laerm;67239;51.680;5.976;2024-01-15T10:43:02;69.20;46.98;80.86;;
66888;Laerm;67239;51.680;5.976;2024-01-15T10:45:30;68.66;45.19;81.54;;
66888;Laerm;67239;51.680;5.976;2024-01-15T10:47:57;66.20;44.94;79.48;;
66888;Laerm;67239;51.680;5.976;2024-01-15T10:50:26;72.57;46.94;84.20;;
66888;Laerm;67239;51.680;5.976;2024-01-15T10:52:55;71.94;46.84;85.71;;
66888;Laerm;67239;51.680;5.976;2024-01-15T10:55:24;71.34;51.51;84.27;;
66888;Laerm;67239;51.680;5.976;2024-01-15T10:57:55;70.63;48.52;83.58;;
66888;Laerm;67239;51.680;5.976;2024-01-15T11:00:24;71.21;51.59;82.46;;
66888;Laerm;67239;51.680;5.976;2024-01-15T11:02:52;68.47;44.25;82.41;;
66888;Laerm;67239;51.680;5.976;2024-01-15T11:05:23;71.19;48.42;82.08;;
66888;Laerm;67239;51.680;5.976;2024-01-15T11:07:50;71.42;48.43;83.97;;
66888;Laerm;67239;51.680;5.976;2024-01-15T11:10:43;70.25;47.62;83.34;;
66888;Laerm;67239;51.680;5.976;2024-01-15T11:16:06;67.89;46.83;83.02;;
66888;Laerm;67239;51.680;5.976;2024-01-15T11:18:40;68.96;47.23;82.94;;
66888;Laerm;67239;51.680;5.976;2024-01-15T11:29:08;70.84;49.38;80.57;;
66888;Laerm;67239;51.680;5.976;2024-01-15T11:34:10;69.21;46.49;83.28;;
66888;Laerm;67239;51.680;5.976;2024-01-15T11:42:02;70.15;48.56;83.07;;
66888;Laerm;67239;51.680;5.976;2024-01-15T11:44:32;68.83;48.74;80.37;;
66888;Laerm;67239;51.680;5.976;2024-01-15T11:47:06;71.76;49.60;83.97;;
66888;Laerm;67239;51.680;5.976;2024-01-15T11:52:26;70.56;47.32;84.39;;
66888;Laerm;67239;51.680;5.976;2024-01-15T11:55:27;68.49;47.44;80.34;;
66888;Laerm;67239;51.680;5.976;2024-01-15T11:58:00;68.46;48.04;82.35;;
66888;Laerm;67239;51.680;5.976;2024-01-15T12:00:30;70.87;49.18;85.60;;
66888;Laerm;67239;51.680;5.976;2024-01-15T12:02:58;70.25;47.52;81.86;;
66888;Laerm;67239;51.680;5.976;2024-01-15T12:05:26;69.73;48.49;79.35;;
66888;Laerm;67239;51.680;5.976;2024-01-15T12:07:53;70.67;49.69;83.14;;
66888;Laerm;67239;51.680;5.976;2024-01-15T12:10:21;71.26;47.81;83.65;;
66888;Laerm;67239;51.680;5.976;2024-01-15T12:13:10;70.73;50.45;83.39;;
66888;Laerm;67239;51.680;5.976;2024-01-15T12:15:43;72.06;48.66;86.16;;
66888;Laerm;67239;51.680;5.976;2024-01-15T12:18:16;69.63;46.57;82.36;;
66888;Laerm;67239;51.680;5.976;2024-01-15T12:20:44;71.57;48.59;85.10;;
66888;Laerm;67239;51.680;5.976;2024-01-15T12:23:14;70.18;49.08;81.70;;
66888;Laerm;67239;51.680;5.976;2024-01-15T12:25:43;68.98;47.83;83.33;;
66888;Laerm;67239;51.680;5.976;2024-01-15T12:28:10;71.02;47.60;86.05;;
66888;Laerm;67239;51.680;5.976;2024-01-15T12:30:39;71.67;49.35;84.98;;
66888;Laerm;67239;51.680;5.976;2024-01-15T12:33:07;72.21;52.74;83.01;;
66888;Laerm;67239;51.680;5.976;2024-01-15T12:35:36;70.61;46.72;84.77;;
66888;Laerm;67239;51.680;5.976;2024-01-15T12:38:04;70.58;51.23;82.02;;
66888;Laerm;67239;51.680;5.976;2024-01-15T12:40:33;67.71;48.60;80.88;;
66888;Laerm;67239;51.680;5.976;2024-01-15T12:43:02;71.52;47.67;84.35;;
66888;Laerm;67239;51.680;5.976;2024-01-15T12:45:30;72.04;49.19;85.53;;
66888;Laerm;67239;51.680;5.976;2024-01-15T12:47:59;72.53;54.45;84.31;;
66888;Laerm;67239;51.680;5.976;2024-01-15T12:50:27;72.50;54.04;84.05;;
66888;Laerm;67239;51.680;5.976;2024-01-15T12:52:54;69.76;47.46;82.69;;
66888;Laerm;67239;51.680;5.976;2024-01-15T12:55:22;71.86;47.02;85.39;;
66888;Laerm;67239;51.680;5.976;2024-01-15T12:57:49;70.51;49.89;84.94;;
66888;Laerm;67239;51.680;5.976;2024-01-15T13:00:20;70.07;48.41;82.53;;
66888;Laerm;67239;51.680;5.976;2024-01-15T13:02:47;71.09;50.07;83.98;;
66888;Laerm;67239;51.680;5.976;2024-01-15T13:05:18;70.45;47.68;83.09;;
66888;Laerm;67239;51.680;5.976;2024-01-15T13:07:48;71.43;52.84;80.59;;
66888;Laerm;67239;51.680;5.976;2024-01-15T13:10:16;70.48;47.90;81.27;;
66888;Laerm;67239;51.680;5.976;2024-01-15T13:12:44;70.29;49.11;80.31;;
66888;Laerm;67239;51.680;5.976;2024-01-15T13:15:12;69.93;49.42;81.77;;
66888;Laerm;67239;51.680;5.976;2024-01-15T13:17:43;68.68;49.12;80.59;;
66888;Laerm;67239;51.680;5.976;2024-01-15T13:20:12;70.94;48.83;84.14;;
66888;Laerm;67239;51.680;5.976;2024-01-15T13:22:43;69.43;48.98;81.24;;
66888;Laerm;67239;51.680;5.976;2024-01-15T13:25:13;69.34;49.57;82.95;;
66888;Laerm;67239;51.680;5.976;2024-01-15T13:27:43;70.59;52.25;82.33;;
66888;Laerm;67239;51.680;5.976;2024-01-15T13:30:11;70.53;50.66;81.57;;
66888;Laerm;67239;51.680;5.976;2024-01-15T13:32:39;69.76;51.76;81.00;;
66888;Laerm;67239;51.680;5.976;2024-01-15T13:35:10;69.78;47.91;82.60;;
66888;Laerm;67239;51.680;5.976;2024-01-15T13:37:40;71.77;49.95;83.18;;
66888;Laerm;67239;51.680;5.976;2024-01-15T13:40:10;66.70;47.07;81.75;;
66888;Laerm;67239;51.680;5.976;2024-01-15T13:42:44;70.20;46.45;84.87;;
66888;Laerm;67239;51.680;5.976;2024-01-15T13:45:20;69.23;46.76;83.61;;
66888;Laerm;67239;51.680;5.976;2024-01-15T13:47:51;71.16;49.46;84.86;;
66888;Laerm;67239;51.680;5.976;2024-01-15T13:50:19;71.76;48.79;84.09;;
66888;Laerm;67239;51.680;5.976;2024-01-15T13:52:50;72.12;50.18;82.84;;
66888;Laerm;67239;51.680;5.976;2024-01-15T13:55:21;73.37;55.66;84.98;;
66888;Laerm;67239;51.680;5.976;2024-01-15T13:57:49;72.50;50.25;85.62;;
66888;Laerm;67239;51.680;5.976;2024-01-15T14:00:17;72.78;52.56;86.32;;
66888;Laerm;67239;51.680;5.976;2024-01-15T14:02:47;72.60;49.15;99.50;;
66888;Laerm;67239;51.680;5.976;2024-01-15T14:05:15;71.93;51.22;84.56;;
66888;Laerm;67239;51.680;5.976;2024-01-15T14:07:43;71.30;50.16;83.79;;
66888;Laerm;67239;51.680;5.976;2024-01-15T14:10:10;72.00;50.16;84.10;;
66888;Laerm;67239;51.680;5.976;2024-01-15T14:12:37;72.29;50.55;84.83;;